createdAt,value
2022-09-25T00:01:01.431Z,13.75
2022-09-25T00:03:29.988Z,13.73
2022-09-25T00:06:09.797Z,13.70
2022-09-25T00:08:37.312Z,13.71
2022-09-25T00:11:10.294Z,13.62
2022-09-25T00:13:38.569Z,13.62
2022-09-25T00:16:05.491Z,13.63
2022-09-25T00:18:51.589Z,13.67
2022-09-25T00:21:18.871Z,13.68
2022-09-25T00:23:48.068Z,13.60
2022-09-25T00:26:17.129Z,13.57
2022-09-25T00:28:44.554Z,13.52
2022-09-25T00:31:12.882Z,13.43
2022-09-25T00:33:39.908Z,13.40
2022-09-25T00:36:09.969Z,13.43
2022-09-25T00:38:38.691Z,13.47
2022-09-25T00:41:07.948Z,13.51
2022-09-25T00:44:02.567Z,13.55
2022-09-25T00:46:38.650Z,13.55
2022-09-25T00:49:12.770Z,13.55
2022-09-25T00:52:06.613Z,13.61
2022-09-25T00:54:37.297Z,13.64
2022-09-25T00:57:13.228Z,13.61
2022-09-25T00:59:44.357Z,13.65
2022-09-25T01:02:17.367Z,13.69
2022-09-25T01:04:46.568Z,13.73
2022-09-25T01:07:15.048Z,13.77
2022-09-25T01:09:42.337Z,13.84
2022-09-25T01:12:09.750Z,13.79
2022-09-25T01:14:38.639Z,13.81
2022-09-25T01:17:17.037Z,13.78
2022-09-25T01:20:04.268Z,13.74
2022-09-25T01:22:55.412Z,13.74
2022-09-25T01:25:47.029Z,13.75
2022-09-25T01:28:41.997Z,13.76
2022-09-25T01:31:19.716Z,13.72
2022-09-25T01:33:51.328Z,13.66
2022-09-25T01:36:53.508Z,13.61
2022-09-25T01:39:27.370Z,13.61
2022-09-25T01:42:21.929Z,13.63
2022-09-25T01:45:03.989Z,13.61
2022-09-25T01:47:39.530Z,13.64
2022-09-25T01:50:13.450Z,13.63
2022-09-25T01:52:49.949Z,13.66
2022-09-25T01:55:45.248Z,13.68
2022-09-25T01:58:22.481Z,13.67
2022-09-25T02:00:56.329Z,13.65
2022-09-25T02:03:50.888Z,13.63
2022-09-25T02:06:21.209Z,13.61
2022-09-25T02:09:17.309Z,13.62
2022-09-25T02:11:50.309Z,13.57
2022-09-25T02:14:43.689Z,13.54
2022-09-25T02:17:34.876Z,13.43
2022-09-25T02:20:20.469Z,13.40
2022-09-25T02:22:51.850Z,13.39
2022-09-25T02:25:41.189Z,13.27
2022-09-25T02:28:08.557Z,13.29
2022-09-25T02:30:35.723Z,13.24
2022-09-25T02:33:02.971Z,13.10
2022-09-25T02:35:30.310Z,13.17
2022-09-25T02:37:57.591Z,13.18
2022-09-25T02:40:48.866Z,13.14
2022-09-25T02:43:50.350Z,13.19
2022-09-25T02:46:51.729Z,13.18
2022-09-25T02:49:55.048Z,13.22
2022-09-25T02:53:11.708Z,13.25
2022-09-25T02:55:48.849Z,13.28
2022-09-25T02:58:39.988Z,13.28
2022-09-25T03:01:10.480Z,13.36
2022-09-25T03:03:40.229Z,13.37
2022-09-25T03:06:09.028Z,13.42
2022-09-25T03:08:39.611Z,13.45
2022-09-25T03:11:18.309Z,13.46
2022-09-25T03:13:46.668Z,13.51
2022-09-25T03:16:13.481Z,13.55
2022-09-25T03:18:41.129Z,13.58
2022-09-25T03:21:08.230Z,13.59
2022-09-25T03:23:35.249Z,13.61
2022-09-25T03:26:02.248Z,13.60
2022-09-25T03:28:29.510Z,13.59
2022-09-25T03:31:10.848Z,13.60
2022-09-25T03:33:40.296Z,13.61
2022-09-25T03:36:11.789Z,13.61
2022-09-25T03:38:41.489Z,13.61
2022-09-25T03:41:10.691Z,13.60
2022-09-25T03:43:39.489Z,13.61
2022-09-25T03:46:11.645Z,13.57
2022-09-25T03:48:39.349Z,13.59
2022-09-25T03:51:07.490Z,13.55
2022-09-25T03:53:34.408Z,13.51
2022-09-25T03:56:03.910Z,13.49
2022-09-25T03:58:30.988Z,13.50
2022-09-25T04:00:58.520Z,13.45
2022-09-25T04:03:29.831Z,13.47
2022-09-25T04:05:59.151Z,13.49
2022-09-25T04:08:27.530Z,13.47
2022-09-25T04:11:01.893Z,13.46
2022-09-25T04:13:32.288Z,13.48
2022-09-25T04:16:01.406Z,13.41
2022-09-25T04:18:32.023Z,13.43
2022-09-25T04:21:04.765Z,13.47
2022-09-25T04:23:32.677Z,13.42
2022-09-25T04:25:59.636Z,13.40
2022-09-25T04:28:27.559Z,13.47
2022-09-25T04:30:54.775Z,13.51
2022-09-25T04:33:40.492Z,13.55
2022-09-25T04:36:07.952Z,13.58
2022-09-25T04:38:35.078Z,13.61
2022-09-25T04:41:02.836Z,13.62
2022-09-25T04:43:30.870Z,13.68
2022-09-25T04:46:09.194Z,13.58
2022-09-25T04:48:36.421Z,13.62
2022-09-25T04:51:04.572Z,13.52
2022-09-25T04:53:35.276Z,13.52
2022-09-25T04:56:04.653Z,13.54
2022-09-25T04:58:31.874Z,13.58
2022-09-25T05:01:06.683Z,13.60
2022-09-25T05:03:33.923Z,13.58
2022-09-25T05:06:00.934Z,13.55
2022-09-25T05:08:28.398Z,13.47
2022-09-25T05:10:55.481Z,13.52
2022-09-25T05:13:22.533Z,13.53
2022-09-25T05:15:49.622Z,13.50
2022-09-25T05:18:20.085Z,13.51
2022-09-25T05:20:47.517Z,13.51
2022-09-25T05:23:14.713Z,13.51
2022-09-25T05:25:41.832Z,13.51
2022-09-25T05:28:10.560Z,13.51
2022-09-25T05:30:39.160Z,13.52
2022-09-25T05:33:06.231Z,13.50
2022-09-25T05:35:34.109Z,13.54
2022-09-25T05:38:01.195Z,13.53
2022-09-25T05:40:28.676Z,13.55
2022-09-25T05:42:55.715Z,13.55
2022-09-25T05:45:26.230Z,13.54
2022-09-25T05:48:07.889Z,13.59
2022-09-25T05:50:35.631Z,13.61
2022-09-25T05:53:05.077Z,13.61
2022-09-25T05:55:32.256Z,13.63
2022-09-25T05:58:03.472Z,13.64
2022-09-25T06:00:34.730Z,13.67
2022-09-25T06:03:02.418Z,13.72
2022-09-25T06:05:30.259Z,13.68
2022-09-25T06:07:57.379Z,13.71
2022-09-25T06:10:26.283Z,13.73
2022-09-25T06:12:59.073Z,13.73
2022-09-25T06:15:30.118Z,13.69
2022-09-25T06:17:57.279Z,13.71
2022-09-25T06:20:25.311Z,13.72
2022-09-25T06:22:56.192Z,13.74
2022-09-25T06:25:26.196Z,13.73
2022-09-25T06:27:54.932Z,13.76
2022-09-25T06:30:23.551Z,13.78
2022-09-25T06:32:57.863Z,13.78
2022-09-25T06:35:24.970Z,13.79
2022-09-25T06:37:52.473Z,13.84
2022-09-25T06:40:19.649Z,13.77
2022-09-25T06:42:46.691Z,13.76
2022-09-25T06:45:13.850Z,13.77
2022-09-25T06:47:40.914Z,13.76
2022-09-25T06:50:08.570Z,13.75
2022-09-25T06:52:42.850Z,13.75
2022-09-25T06:55:09.950Z,13.75
2022-09-25T06:57:38.334Z,13.75
2022-09-25T07:00:06.418Z,13.78
2022-09-25T07:02:52.214Z,13.80
2022-09-25T07:05:19.391Z,13.84
2022-09-25T07:07:46.658Z,13.89
2022-09-25T07:10:13.733Z,13.90
2022-09-25T07:12:41.790Z,13.95
2022-09-25T07:15:09.278Z,13.97
2022-09-25T07:17:36.435Z,13.98
2022-09-25T07:20:04.038Z,14.02
2022-09-25T07:22:31.002Z,14.05
2022-09-25T07:24:58.049Z,14.09
2022-09-25T07:27:25.318Z,14.12
2022-09-25T07:29:52.731Z,14.13
2022-09-25T07:32:20.857Z,14.19
2022-09-25T07:34:50.431Z,14.20
2022-09-25T07:37:20.610Z,14.22
2022-09-25T07:39:47.637Z,14.23
2022-09-25T07:42:14.640Z,14.27
2022-09-25T07:44:44.845Z,14.32
2022-09-25T07:47:15.481Z,14.36
2022-09-25T07:49:42.411Z,14.39
2022-09-25T07:52:09.360Z,14.42
2022-09-25T07:54:36.791Z,14.46
2022-09-25T07:57:03.842Z,14.50
2022-09-25T07:59:30.743Z,14.55
2022-09-25T08:01:58.389Z,14.50
2022-09-25T08:04:25.362Z,14.48
2022-09-25T08:06:52.281Z,14.46
2022-09-25T08:09:19.271Z,14.41
2022-09-25T08:11:46.290Z,14.58
2022-09-25T08:14:14.685Z,14.51
2022-09-25T08:16:43.182Z,14.49
2022-09-25T08:19:13.120Z,14.56
2022-09-25T08:21:40.082Z,14.40
2022-09-25T08:24:07.234Z,14.55
2022-09-25T08:26:34.323Z,14.62
2022-09-25T08:29:01.441Z,14.62
2022-09-25T08:31:28.715Z,14.55
2022-09-25T08:33:55.742Z,14.57
2022-09-25T08:36:23.911Z,14.54
2022-09-25T08:38:53.214Z,14.43
2022-09-25T08:41:27.242Z,14.51
2022-09-25T08:44:19.933Z,14.51
2022-09-25T08:47:09.703Z,14.50
2022-09-25T08:49:45.881Z,14.49
2022-09-25T08:52:18.307Z,14.53
2022-09-25T08:54:45.975Z,14.49
2022-09-25T08:57:43.722Z,14.51
2022-09-25T09:00:20.890Z,14.52
2022-09-25T09:02:54.305Z,14.53
2022-09-25T09:05:30.513Z,14.53
2022-09-25T09:08:06.442Z,14.58
2022-09-25T09:10:45.162Z,14.62
2022-09-25T09:13:35.149Z,14.53
2022-09-25T09:16:02.244Z,14.48
2022-09-25T09:18:31.582Z,14.49
2022-09-25T09:21:22.821Z,14.47
2022-09-25T09:24:14.681Z,14.44
2022-09-25T09:26:53.693Z,14.50
2022-09-25T09:29:35.042Z,14.52
2022-09-25T09:32:20.363Z,14.51
2022-09-25T09:35:06.726Z,14.51
2022-09-25T09:37:37.345Z,14.52
2022-09-25T09:40:29.251Z,14.53
2022-09-25T09:43:05.104Z,14.51
2022-09-25T09:45:44.464Z,14.53
2022-09-25T09:48:39.445Z,14.54
2022-09-25T09:51:35.610Z,14.54
2022-09-25T09:54:14.117Z,14.48
2022-09-25T09:56:45.052Z,14.49
2022-09-25T09:59:23.447Z,14.49
2022-09-25T10:02:01.726Z,14.46
2022-09-25T10:04:38.321Z,14.51
2022-09-25T10:07:12.322Z,14.49
2022-09-25T10:09:39.343Z,14.51
2022-09-25T10:12:14.935Z,14.58
2022-09-25T10:14:46.026Z,14.65
2022-09-25T10:17:13.052Z,14.70
2022-09-25T10:19:44.483Z,14.75
2022-09-25T10:22:17.207Z,14.83
2022-09-25T10:24:55.309Z,14.80
2022-09-25T10:27:28.801Z,14.84
2022-09-25T10:30:09.831Z,14.95
2022-09-25T10:33:01.434Z,14.94
2022-09-25T10:35:42.723Z,15.05
2022-09-25T10:39:24.210Z,15.09
2022-09-25T10:41:47.913Z,15.19
2022-09-25T10:44:24.065Z,15.20
2022-09-25T10:47:09.902Z,15.26
2022-09-25T10:50:06.699Z,15.27
2022-09-25T10:52:53.935Z,15.36
2022-09-25T10:55:46.617Z,15.41
2022-09-25T10:58:20.353Z,15.52
2022-09-25T11:00:47.274Z,15.60
2022-09-25T11:13:37.121Z,15.23
2022-09-25T11:16:10.655Z,15.19
2022-09-25T11:18:43.512Z,15.26
2022-09-25T11:21:26.190Z,15.36
2022-09-25T11:23:55.967Z,15.49
2022-09-25T11:26:29.203Z,15.63
2022-09-25T11:29:15.238Z,15.73
2022-09-25T11:31:56.403Z,15.81
2022-09-25T11:34:36.765Z,15.94
2022-09-25T11:37:20.380Z,16.12
2022-09-25T11:40:14.024Z,16.26
2022-09-25T11:42:54.071Z,16.48
2022-09-25T11:45:30.713Z,16.70
2022-09-25T11:48:13.353Z,16.77
2022-09-25T11:50:53.309Z,17.16
2022-09-25T11:53:33.734Z,17.37
2022-09-25T11:56:19.352Z,17.34
2022-09-25T11:58:58.123Z,17.17
2022-09-25T12:01:45.929Z,17.29
2022-09-25T12:04:15.888Z,17.35
2022-09-25T12:07:03.002Z,17.29
2022-09-25T12:09:54.981Z,17.31
2022-09-25T12:12:42.921Z,17.29
2022-09-25T12:15:47.956Z,17.20
2022-09-25T12:18:34.404Z,17.13
2022-09-25T12:21:07.982Z,17.13
2022-09-25T12:23:43.337Z,17.12
2022-09-25T12:26:39.745Z,17.16
2022-09-25T12:29:27.140Z,17.16
2022-09-25T12:32:04.594Z,17.20
2022-09-25T12:34:52.815Z,17.30
2022-09-25T12:37:27.635Z,17.65
2022-09-25T12:40:00.139Z,17.95
2022-09-25T12:42:45.284Z,18.21
2022-09-25T12:45:45.977Z,18.36
2022-09-25T12:48:38.004Z,18.38
2022-09-25T12:51:51.725Z,18.43
2022-09-25T12:54:51.116Z,18.60
2022-09-25T12:57:33.114Z,18.61
2022-09-25T13:00:15.216Z,18.53
2022-09-25T13:02:51.590Z,18.52
2022-09-25T13:05:34.796Z,18.43
2022-09-25T13:08:13.060Z,18.32
2022-09-25T13:10:49.209Z,18.16
2022-09-25T13:13:21.446Z,18.17
2022-09-25T13:15:57.605Z,18.22
2022-09-25T13:18:27.226Z,18.19
2022-09-25T13:21:20.043Z,18.20
2022-09-25T13:23:51.400Z,18.24
2022-09-25T13:26:25.320Z,18.19
2022-09-25T13:29:04.661Z,18.09
2022-09-25T13:31:34.522Z,18.17
2022-09-25T13:34:01.402Z,18.13
2022-09-25T13:36:39.682Z,18.08
2022-09-25T13:39:59.686Z,18.02
2022-09-25T13:42:26.802Z,18.02
2022-09-25T13:45:08.682Z,18.04
2022-09-25T13:47:38.721Z,17.98
2022-09-25T13:50:19.607Z,18.05
2022-09-25T13:53:09.290Z,18.10
2022-09-25T13:55:44.140Z,18.16
2022-09-25T13:58:24.361Z,18.24
2022-09-25T14:00:57.858Z,18.21
2022-09-25T14:03:44.796Z,18.07
2022-09-25T14:06:23.760Z,18.24
2022-09-25T14:08:53.572Z,18.32
2022-09-25T14:11:27.124Z,18.33
2022-09-25T14:13:56.975Z,18.32
2022-09-25T14:16:27.875Z,18.26
2022-09-25T14:18:58.488Z,18.24
2022-09-25T14:21:29.124Z,18.23
2022-09-25T14:23:58.266Z,18.15
2022-09-25T14:26:27.801Z,18.20
2022-09-25T14:28:57.492Z,18.23
2022-09-25T14:31:33.360Z,18.25
2022-09-25T14:34:22.341Z,18.32
2022-09-25T14:36:59.240Z,18.60
2022-09-25T14:39:48.311Z,18.84
2022-09-25T14:42:53.230Z,19.07
2022-09-25T14:45:44.542Z,19.20
2022-09-25T14:48:20.522Z,19.05
2022-09-25T14:50:51.142Z,19.11
2022-09-25T14:53:30.111Z,19.08
2022-09-25T14:55:58.991Z,19.01
2022-09-25T14:58:30.462Z,18.90
2022-09-25T15:01:02.320Z,18.71
2022-09-25T15:03:32.102Z,18.56
2022-09-25T15:06:04.055Z,18.45
2022-09-25T15:08:31.044Z,18.39
2022-09-25T15:11:03.984Z,18.25
2022-09-25T15:13:33.872Z,18.21
2022-09-25T15:16:20.775Z,18.08
2022-09-25T15:18:54.416Z,17.96
2022-09-25T15:21:31.133Z,17.82
2022-09-25T15:24:10.013Z,17.72
2022-09-25T15:26:44.442Z,17.62
2022-09-25T15:29:18.563Z,17.58
2022-09-25T15:31:51.074Z,17.49
2022-09-25T15:34:30.236Z,17.37
2022-09-25T15:37:29.638Z,17.36
2022-09-25T15:40:00.944Z,17.17
2022-09-25T15:42:28.021Z,17.14
2022-09-25T15:44:57.592Z,17.06
2022-09-25T15:47:36.885Z,16.96
2022-09-25T15:50:11.739Z,16.81
2022-09-25T15:52:42.276Z,16.78
2022-09-25T15:55:15.785Z,16.68
2022-09-25T15:57:43.550Z,16.64
2022-09-25T16:00:42.251Z,16.45
2022-09-25T16:03:43.974Z,16.45
2022-09-25T16:06:17.536Z,16.50
2022-09-25T16:08:45.375Z,16.46
2022-09-25T16:11:16.925Z,16.41
2022-09-25T16:13:49.480Z,16.33
2022-09-25T16:16:21.344Z,16.29
2022-09-25T16:18:49.483Z,16.19
2022-09-25T16:21:27.801Z,16.17
2022-09-25T16:24:07.618Z,16.04
2022-09-25T16:26:40.466Z,15.98
2022-09-25T16:29:13.532Z,15.98
2022-09-25T16:31:43.854Z,15.81
2022-09-25T16:34:31.787Z,15.92
2022-09-25T16:37:03.360Z,15.82
2022-09-25T16:39:31.800Z,15.54
2022-09-25T16:42:00.283Z,15.79
2022-09-25T16:44:28.361Z,15.65
2022-09-25T16:46:55.300Z,15.78
2022-09-25T16:49:22.926Z,15.78
2022-09-25T16:51:52.555Z,15.71
2022-09-25T16:54:21.687Z,15.71
2022-09-25T16:56:49.260Z,15.73
2022-09-25T16:59:25.120Z,15.70
2022-09-25T17:01:58.141Z,15.71
2022-09-25T17:04:28.080Z,15.72
2022-09-25T17:06:58.391Z,15.63
2022-09-25T17:09:28.540Z,15.66
2022-09-25T17:12:08.790Z,15.64
2022-09-25T17:14:36.521Z,15.66
2022-09-25T17:17:03.591Z,15.66
2022-09-25T17:19:31.918Z,15.71
2022-09-25T17:21:59.620Z,15.72
2022-09-25T17:24:27.740Z,15.72
2022-09-25T17:26:54.930Z,15.73
2022-09-25T17:29:22.817Z,15.72
2022-09-25T17:31:49.923Z,15.70
2022-09-25T17:34:25.463Z,15.67
2022-09-25T17:36:52.621Z,15.62
2022-09-25T17:39:19.640Z,15.58
2022-09-25T17:41:47.318Z,15.55
2022-09-25T17:44:21.209Z,15.50
2022-09-25T17:46:49.219Z,15.46
2022-09-25T17:49:16.655Z,15.47
2022-09-25T17:51:43.963Z,15.45
2022-09-25T17:54:13.062Z,15.41
2022-09-25T17:56:55.730Z,15.36
2022-09-25T17:59:24.388Z,15.30
2022-09-25T18:01:51.453Z,15.29
2022-09-25T18:04:20.712Z,15.26
2022-09-25T18:06:48.241Z,15.23
2022-09-25T18:09:15.280Z,15.20
2022-09-25T18:11:46.812Z,15.21
2022-09-25T18:14:16.631Z,15.17
2022-09-25T18:16:44.953Z,15.14
2022-09-25T18:19:36.726Z,15.17
2022-09-25T18:22:22.075Z,15.19
2022-09-25T18:24:59.541Z,15.20
2022-09-25T18:27:30.823Z,15.22
2022-09-25T18:29:58.443Z,15.23
2022-09-25T18:32:26.211Z,15.26
2022-09-25T18:34:53.363Z,15.29
2022-09-25T18:37:20.412Z,15.29
2022-09-25T18:39:48.471Z,15.31
2022-09-25T18:42:16.032Z,15.29
2022-09-25T18:44:43.460Z,15.30
2022-09-25T18:47:13.191Z,15.32
2022-09-25T18:49:41.185Z,15.35
2022-09-25T18:52:14.381Z,15.35
2022-09-25T18:54:42.574Z,15.42
2022-09-25T18:57:11.860Z,15.39
2022-09-25T18:59:41.338Z,15.38
2022-09-25T19:02:23.607Z,15.36
2022-09-25T19:04:55.229Z,15.36
2022-09-25T19:07:24.421Z,15.35
2022-09-25T19:09:52.892Z,15.36
2022-09-25T19:12:21.079Z,15.39
2022-09-25T19:14:48.798Z,15.41
2022-09-25T19:17:17.091Z,15.37
2022-09-25T19:19:44.542Z,15.33
2022-09-25T19:22:19.990Z,15.34
2022-09-25T19:24:49.034Z,15.31
2022-09-25T19:27:17.351Z,15.20
2022-09-25T19:29:47.681Z,15.17
2022-09-25T19:32:17.652Z,15.17
2022-09-25T19:34:45.243Z,15.13
2022-09-25T19:37:12.781Z,15.15
2022-09-25T19:39:59.224Z,15.20
2022-09-25T19:42:28.421Z,15.19
2022-09-25T19:44:56.782Z,15.17
2022-09-25T19:47:24.393Z,15.19
2022-09-25T19:49:51.409Z,15.26
2022-09-25T19:52:20.793Z,15.27
2022-09-25T19:54:48.321Z,15.30
2022-09-25T20:01:18.634Z,15.34
2022-09-25T20:03:47.402Z,15.34
2022-09-25T20:06:16.242Z,15.36
2022-09-25T20:08:44.312Z,15.35
2022-09-25T20:11:20.882Z,15.35
2022-09-25T20:13:49.282Z,15.28
2022-09-25T20:16:19.106Z,15.26
2022-09-25T20:18:51.683Z,15.20
2022-09-25T20:21:21.470Z,15.28
2022-09-25T20:23:53.346Z,15.26
2022-09-25T20:26:21.062Z,15.23
2022-09-25T20:28:53.120Z,15.20
2022-09-25T20:31:20.805Z,15.16
2022-09-25T20:33:47.931Z,15.17
2022-09-25T20:36:16.601Z,15.16
2022-09-25T20:38:45.591Z,15.20
2022-09-25T20:41:13.779Z,15.22
2022-09-25T20:43:41.261Z,15.22
2022-09-25T20:46:11.187Z,15.20
2022-09-25T20:48:47.327Z,15.25
2022-09-25T20:51:17.129Z,15.27
2022-09-25T20:53:48.883Z,15.26
2022-09-25T20:56:16.233Z,15.28
2022-09-25T20:58:45.316Z,15.30
2022-09-25T21:01:17.534Z,15.31
2022-09-25T21:03:46.648Z,15.32
2022-09-25T21:06:25.000Z,15.30
2022-09-25T21:08:54.391Z,15.30
2022-09-25T21:11:22.575Z,15.30
2022-09-25T21:13:51.502Z,15.30
2022-09-25T21:16:20.046Z,15.30
2022-09-25T21:18:56.149Z,15.27
2022-09-25T21:21:24.811Z,15.27
2022-09-25T21:23:54.420Z,15.26
2022-09-25T21:26:23.883Z,15.25
2022-09-25T21:28:52.615Z,15.24
2022-09-25T21:31:25.129Z,15.26
2022-09-25T21:33:53.901Z,15.23
2022-09-25T21:36:22.123Z,15.23
2022-09-25T21:38:49.621Z,15.18
2022-09-25T21:41:19.102Z,15.17
2022-09-25T21:43:46.853Z,15.15
2022-09-25T21:46:16.198Z,15.13
2022-09-25T21:48:49.493Z,15.10
2022-09-25T21:51:17.542Z,15.11
2022-09-25T21:53:44.741Z,15.09
2022-09-25T21:56:14.881Z,15.06
2022-09-25T21:58:41.813Z,15.07
2022-09-25T22:01:20.180Z,15.07
2022-09-25T22:03:50.001Z,15.04
2022-09-25T22:06:23.031Z,15.03
2022-09-25T22:08:58.802Z,14.92
2022-09-25T22:11:26.370Z,14.95
2022-09-25T22:13:53.612Z,14.92
2022-09-25T22:16:26.228Z,14.87
2022-09-25T22:18:59.920Z,14.85
2022-09-25T22:21:29.900Z,14.82
2022-09-25T22:23:57.571Z,14.79
2022-09-25T22:26:25.340Z,14.73
2022-09-25T22:28:52.802Z,14.73
2022-09-25T22:31:23.588Z,14.70
2022-09-25T22:33:55.523Z,14.71
2022-09-25T22:36:23.043Z,14.70
2022-09-25T22:38:49.963Z,14.69
2022-09-25T22:41:17.111Z,14.68
2022-09-25T22:43:44.101Z,14.68
2022-09-25T22:46:12.741Z,14.66
2022-09-25T22:48:39.958Z,14.68
2022-09-25T22:51:18.643Z,14.69
2022-09-25T22:53:46.781Z,14.69
2022-09-25T22:56:23.248Z,14.70
2022-09-25T22:58:54.402Z,14.71
2022-09-25T23:01:39.429Z,14.68
2022-09-25T23:04:12.122Z,14.66
2022-09-25T23:06:39.276Z,14.61
2022-09-25T23:09:09.183Z,14.62
2022-09-25T23:11:36.331Z,14.62
2022-09-25T23:14:07.129Z,14.60
2022-09-25T23:16:34.977Z,14.58
2022-09-25T23:19:02.561Z,14.57
2022-09-25T23:21:30.959Z,14.54
2022-09-25T23:24:03.601Z,14.55
2022-09-25T23:26:31.100Z,14.50
2022-09-25T23:28:59.380Z,14.49
2022-09-25T23:31:26.356Z,14.47
2022-09-25T23:33:53.351Z,14.48
2022-09-25T23:36:23.361Z,14.31
2022-09-25T23:38:52.422Z,14.42
2022-09-25T23:41:25.270Z,14.43
2022-09-25T23:43:53.961Z,14.44
2022-09-25T23:46:23.233Z,14.42
2022-09-25T23:48:51.201Z,14.38
2022-09-25T23:51:20.400Z,14.43
2022-09-25T23:53:48.781Z,14.42
2022-09-25T23:56:19.761Z,14.49
2022-09-25T23:58:47.960Z,14.46
